createdAt,value
2019-02-05T00:00:50.933Z,0.30
2019-02-05T00:03:23.939Z,0.10
2019-02-05T00:05:55.379Z,0.10
2019-02-05T00:08:26.259Z,0.10
2019-02-05T00:10:57.939Z,0.10
2019-02-05T00:13:28.739Z,0.10
2019-02-05T00:15:59.944Z,0.20
2019-02-05T00:18:31.139Z,0.20
2019-02-05T00:21:02.196Z,0.20
2019-02-05T00:23:33.099Z,0.30
2019-02-05T00:26:06.568Z,0.30
2019-02-05T00:28:37.339Z,0.30
2019-02-05T00:31:08.619Z,0.30
2019-02-05T00:33:39.499Z,0.40
2019-02-05T00:36:11.299Z,0.40
2019-02-05T00:38:42.139Z,0.30
2019-02-05T00:41:14.581Z,0.20
2019-02-05T00:43:45.863Z,0.20
2019-02-05T00:46:16.701Z,0.20
2019-02-05T00:48:48.546Z,0.20
2019-02-05T00:51:19.656Z,0.20
2019-02-05T00:53:50.816Z,0.20
2019-02-05T00:56:21.896Z,0.20
2019-02-05T00:58:52.983Z,0.20
2019-02-05T01:01:24.216Z,0.20
2019-02-05T01:03:55.464Z,0.20
2019-02-05T01:06:26.856Z,0.20
2019-02-05T01:08:58.072Z,0.10
2019-02-05T01:11:29.176Z,0.10
2019-02-05T01:14:00.136Z,0.10
2019-02-05T01:16:32.657Z,0.10
2019-02-05T01:19:03.976Z,0.10
2019-02-05T01:21:35.217Z,0.10
2019-02-05T01:24:06.616Z,0.20
2019-02-05T01:26:37.736Z,0.10
2019-02-05T01:29:09.856Z,0.20
2019-02-05T01:31:41.658Z,0.20
2019-02-05T01:34:13.696Z,0.10
2019-02-05T01:36:44.457Z,0.10
2019-02-05T01:39:16.296Z,0.10
2019-02-05T01:41:47.337Z,0.10
2019-02-05T01:44:18.256Z,0.20
2019-02-05T01:46:49.357Z,0.10
2019-02-05T01:49:21.075Z,0.10
2019-02-05T01:51:51.995Z,0.10
2019-02-05T01:54:22.795Z,0.10
2019-02-05T01:56:53.683Z,0.10
2019-02-05T01:59:25.115Z,0.10
2019-02-05T02:01:56.163Z,0.10
2019-02-05T02:04:27.435Z,0.10
2019-02-05T02:06:59.517Z,0.20
2019-02-05T02:09:30.596Z,0.20
2019-02-05T02:12:01.475Z,0.20
2019-02-05T02:14:32.517Z,0.20
2019-02-05T02:17:03.399Z,0.20
2019-02-05T02:19:36.115Z,0.20
2019-02-05T02:22:07.755Z,0.30
2019-02-05T02:24:38.716Z,0.30
2019-02-05T02:27:11.235Z,0.20
2019-02-05T02:29:41.995Z,0.20
2019-02-05T02:32:13.683Z,0.20
2019-02-05T02:34:44.595Z,0.20
2019-02-05T02:37:16.835Z,0.20
2019-02-05T02:39:47.637Z,0.20
2019-02-05T02:42:19.035Z,0.20
2019-02-05T02:44:50.116Z,0.20
2019-02-05T02:47:21.011Z,0.20
2019-02-05T02:49:51.973Z,0.30
2019-02-05T02:52:23.131Z,0.20
2019-02-05T02:54:54.261Z,0.20
2019-02-05T02:57:26.331Z,0.20
2019-02-05T02:59:57.091Z,0.20
2019-02-05T03:02:28.335Z,0.10
2019-02-05T03:04:59.212Z,0.10
2019-02-05T03:07:30.251Z,0.10
2019-02-05T03:10:01.252Z,0.10
2019-02-05T03:12:35.251Z,0.00
2019-02-05T03:15:07.171Z,0.00
2019-02-05T03:17:38.532Z,0.00
2019-02-05T03:20:10.612Z,0.10
2019-02-05T03:22:41.373Z,0.10
2019-02-05T03:25:14.491Z,0.00
2019-02-05T03:27:45.333Z,0.00
2019-02-05T03:30:18.657Z,0.00
2019-02-05T03:32:50.175Z,0.00
2019-02-05T03:35:21.691Z,0.00
2019-02-05T03:37:53.091Z,0.00
2019-02-05T03:41:01.859Z,0.00
2019-02-05T03:43:36.146Z,0.00
2019-02-05T03:46:15.105Z,0.10
2019-02-05T03:48:48.584Z,0.10
2019-02-05T03:51:28.271Z,0.10
2019-02-05T03:54:23.505Z,0.10
2019-02-05T03:57:30.606Z,0.20
2019-02-05T04:00:20.780Z,0.10
2019-02-05T04:03:03.220Z,0.00
2019-02-05T04:05:48.635Z,0.10
2019-02-05T04:08:48.384Z,0.10
2019-02-05T04:11:57.313Z,0.10
2019-02-05T04:15:06.791Z,0.10
2019-02-05T04:18:08.186Z,0.10
2019-02-05T04:21:12.944Z,0.10
2019-02-05T04:24:14.373Z,0.00
2019-02-05T04:27:23.825Z,0.00
2019-02-05T04:30:20.785Z,0.00
2019-02-05T04:33:12.673Z,0.00
2019-02-05T04:36:07.552Z,0.00
2019-02-05T04:39:08.820Z,0.10
2019-02-05T04:42:18.024Z,0.00
2019-02-05T04:45:15.071Z,0.00
2019-02-05T04:48:24.226Z,0.00
2019-02-05T04:51:33.181Z,0.00
2019-02-05T04:54:11.984Z,0.10
2019-02-05T04:56:59.469Z,0.10
2019-02-05T05:00:02.554Z,0.10
2019-02-05T05:02:50.625Z,0.00
2019-02-05T05:05:59.545Z,0.10
2019-02-05T05:09:00.160Z,0.10
2019-02-05T05:11:31.264Z,0.10
2019-02-05T05:14:02.346Z,0.10
2019-02-05T05:16:33.265Z,0.00
2019-02-05T05:19:05.108Z,0.00
2019-02-05T05:21:37.611Z,0.00
2019-02-05T05:24:09.454Z,0.00
2019-02-05T05:26:40.865Z,0.00
2019-02-05T05:29:11.946Z,0.00
2019-02-05T05:31:46.508Z,0.10
2019-02-05T05:34:20.344Z,0.00
2019-02-05T05:36:52.304Z,0.00
2019-02-05T05:39:27.306Z,0.00
2019-02-05T05:42:05.905Z,0.00
2019-02-05T05:44:44.144Z,0.00
2019-02-05T05:47:15.228Z,0.00
2019-02-05T05:49:51.506Z,-0.10
2019-02-05T05:52:22.547Z,-0.10
2019-02-05T05:54:53.583Z,-0.10
2019-02-05T05:57:28.253Z,-0.10
2019-02-05T05:59:59.747Z,-0.10
2019-02-05T06:02:30.704Z,0.00
2019-02-05T06:05:06.466Z,-0.10
2019-02-05T06:07:43.833Z,-0.10
2019-02-05T06:10:15.904Z,0.00
2019-02-05T06:12:48.106Z,0.00
2019-02-05T06:15:20.516Z,-0.10
2019-02-05T06:17:53.624Z,0.00
2019-02-05T06:20:25.221Z,-0.10
2019-02-05T06:22:56.553Z,0.00
2019-02-05T06:25:27.466Z,-0.10
2019-02-05T06:27:58.373Z,-0.10
2019-02-05T06:30:29.744Z,0.00
2019-02-05T06:33:00.664Z,0.00
2019-02-05T06:35:31.586Z,-0.10
2019-02-05T06:38:02.624Z,-0.10
2019-02-05T06:40:34.105Z,-0.10
2019-02-05T06:43:10.454Z,-0.10
2019-02-05T06:45:48.864Z,-0.10
2019-02-05T06:48:26.294Z,-0.10
2019-02-05T06:51:04.033Z,-0.10
2019-02-05T06:53:37.185Z,-0.10
2019-02-05T06:56:08.050Z,-0.10
2019-02-05T06:58:46.446Z,-0.10
2019-02-05T07:01:12.268Z,-0.10
2019-02-05T07:03:43.618Z,-0.10
2019-02-05T07:06:14.746Z,-0.10
2019-02-05T07:08:54.264Z,-0.10
2019-02-05T07:11:38.445Z,-0.10
2019-02-05T07:14:16.504Z,0.00
2019-02-05T07:29:44.296Z,0.00
2019-02-05T07:32:16.483Z,0.10
2019-02-05T07:34:48.686Z,0.10
2019-02-05T07:37:21.644Z,0.20
2019-02-05T07:39:55.244Z,0.20
2019-02-05T07:42:27.443Z,0.20
2019-02-05T07:45:01.442Z,0.20
2019-02-05T07:47:35.575Z,0.20
2019-02-05T07:50:15.647Z,0.10
2019-02-05T07:52:50.365Z,0.10
2019-02-05T07:55:25.282Z,0.20
2019-02-05T07:57:57.522Z,0.10
2019-02-05T08:00:29.364Z,0.10
2019-02-05T08:03:01.404Z,0.10
2019-02-05T08:05:33.364Z,0.10
2019-02-05T08:08:05.002Z,0.20
2019-02-05T08:10:37.077Z,0.20
2019-02-05T08:13:08.404Z,0.20
2019-02-05T08:15:39.603Z,0.30
2019-02-05T08:18:12.244Z,0.30
2019-02-05T08:20:44.443Z,0.40
2019-02-05T08:23:15.323Z,0.40
2019-02-05T08:25:47.005Z,0.30
2019-02-05T08:28:18.003Z,0.30
2019-02-05T08:30:49.628Z,0.40
2019-02-05T08:33:21.076Z,0.30
2019-02-05T08:35:52.149Z,0.30
2019-02-05T08:38:22.870Z,0.30
2019-02-05T08:40:54.508Z,0.30
2019-02-05T08:43:25.549Z,0.30
2019-02-05T08:45:57.028Z,0.30
2019-02-05T08:48:28.428Z,0.30
2019-02-05T08:50:59.669Z,0.30
2019-02-05T08:53:31.068Z,0.30
2019-02-05T08:56:01.750Z,0.30
2019-02-05T08:58:32.830Z,0.30
2019-02-05T09:01:03.868Z,0.40
2019-02-05T09:03:34.956Z,0.40
2019-02-05T09:06:06.068Z,0.40
2019-02-05T09:08:38.508Z,0.40
2019-02-05T13:14:40.072Z,2.20
2019-02-05T13:17:10.558Z,2.10
2019-02-05T13:19:42.084Z,2.20
2019-02-05T13:22:12.488Z,2.30
2019-02-05T13:24:43.535Z,2.40
2019-02-05T13:27:14.018Z,2.30
2019-02-05T13:29:45.015Z,2.40
2019-02-05T13:32:16.050Z,2.40
2019-02-05T13:34:46.613Z,2.40
2019-02-05T13:37:17.328Z,2.30
2019-02-05T13:39:48.958Z,2.20
2019-02-05T13:42:19.734Z,2.20
2019-02-05T13:44:50.315Z,2.30
2019-02-05T13:47:21.152Z,2.30
2019-02-05T13:49:52.208Z,2.20
2019-02-05T13:52:22.940Z,2.20
2019-02-05T13:54:55.378Z,2.10
2019-02-05T13:57:26.906Z,2.10
2019-02-05T13:59:58.051Z,2.10
2019-02-05T14:02:30.114Z,2.10
2019-02-05T14:05:00.755Z,2.20
2019-02-05T14:07:31.496Z,2.20
2019-02-05T14:10:02.483Z,2.20
2019-02-05T14:12:32.858Z,2.10
2019-02-05T14:15:04.212Z,2.20
2019-02-05T14:17:35.856Z,2.20
2019-02-05T14:20:07.732Z,2.10
2019-02-05T14:22:38.255Z,2.10
2019-02-05T14:25:10.854Z,2.10
2019-02-05T14:27:41.405Z,2.20
2019-02-05T14:30:22.735Z,2.10
2019-02-05T14:32:53.266Z,2.20
2019-02-05T14:35:24.025Z,2.10
2019-02-05T14:37:55.255Z,2.20
2019-02-05T14:40:25.991Z,2.20
2019-02-05T14:42:56.802Z,2.30
2019-02-05T14:45:30.074Z,2.30
2019-02-05T14:48:01.168Z,2.30
2019-02-05T14:50:32.661Z,2.30
2019-02-05T14:53:03.497Z,2.30
2019-02-05T14:55:34.054Z,2.30
2019-02-05T14:58:05.855Z,2.30
2019-02-05T15:00:37.062Z,2.30
2019-02-05T15:03:09.378Z,2.20
2019-02-05T15:05:40.610Z,2.20
2019-02-05T15:08:12.130Z,2.20
2019-02-05T15:10:42.684Z,2.10
2019-02-05T15:13:15.874Z,2.00
2019-02-05T15:15:46.157Z,2.10
2019-02-05T15:18:19.410Z,2.00
2019-02-05T15:20:52.149Z,2.00
2019-02-05T15:23:23.065Z,2.00
2019-02-05T15:25:54.111Z,1.90
2019-02-05T15:28:24.579Z,1.90
2019-02-05T15:30:55.525Z,1.90
2019-02-05T15:33:35.760Z,1.80
2019-02-05T15:36:16.991Z,1.80
2019-02-05T15:38:49.239Z,1.80
2019-02-05T15:41:19.836Z,1.80
2019-02-05T15:43:50.225Z,1.80
2019-02-05T15:46:20.710Z,1.80
2019-02-05T15:48:54.437Z,1.80
2019-02-05T15:51:25.041Z,1.80
2019-02-05T15:53:56.017Z,1.80
2019-02-05T15:56:27.028Z,1.80
2019-02-05T15:58:57.527Z,1.80
2019-02-05T16:01:28.589Z,1.80
2019-02-05T16:03:59.365Z,1.70
2019-02-05T16:06:30.093Z,1.70
2019-02-05T16:09:01.028Z,1.70
2019-02-05T16:11:33.311Z,1.70
2019-02-05T16:14:04.005Z,1.60
2019-02-05T16:16:34.618Z,1.60
2019-02-05T16:19:05.295Z,1.70
2019-02-05T16:21:35.721Z,1.70
2019-02-05T16:24:06.711Z,1.70
2019-02-05T16:26:37.102Z,1.70
2019-02-05T16:29:09.048Z,1.60
2019-02-05T16:31:40.663Z,1.70
2019-02-05T16:34:11.427Z,1.70
2019-02-05T16:36:41.907Z,1.70
2019-02-05T16:39:14.003Z,1.70
2019-02-05T16:41:45.381Z,1.70
2019-02-05T16:44:15.752Z,1.70
2019-02-05T16:46:46.599Z,1.70
2019-02-05T16:49:17.331Z,1.60
2019-02-05T16:51:47.759Z,1.60
2019-02-05T16:54:18.156Z,1.60
2019-02-05T16:56:48.527Z,1.60
2019-02-05T16:59:19.933Z,1.60
2019-02-05T17:01:50.315Z,1.60
2019-02-05T17:04:20.710Z,1.60
2019-02-05T17:06:52.395Z,1.60
2019-02-05T17:09:23.601Z,1.50
2019-02-05T17:11:56.872Z,1.60
2019-02-05T17:14:26.503Z,1.50
2019-02-05T17:16:57.351Z,1.50
2019-02-05T17:19:28.361Z,1.40
2019-02-05T17:22:02.383Z,1.40
2019-02-05T17:24:32.927Z,1.30
2019-02-05T17:27:03.304Z,1.30
2019-02-05T17:29:33.847Z,1.40
2019-02-05T17:32:07.745Z,1.40
2019-02-05T17:34:39.187Z,1.40
2019-02-05T17:37:12.757Z,1.40
2019-02-05T17:39:43.330Z,1.40
2019-02-05T17:42:14.603Z,1.40
2019-02-05T17:44:45.335Z,1.50
2019-02-05T17:47:17.039Z,1.50
2019-02-05T17:49:47.904Z,1.50
2019-02-05T17:52:18.935Z,1.50
2019-02-05T17:54:52.267Z,1.40
2019-02-05T17:57:22.946Z,1.40
2019-02-05T17:59:54.208Z,1.40
2019-02-05T18:02:25.181Z,1.30
2019-02-05T18:04:55.764Z,1.30
2019-02-05T18:07:26.566Z,1.30
2019-02-05T18:09:57.528Z,1.30
2019-02-05T18:12:28.426Z,1.20
2019-02-05T18:14:59.329Z,1.20
2019-02-05T18:17:30.087Z,1.20
2019-02-05T18:20:01.019Z,1.20
2019-02-05T18:22:32.194Z,1.10
2019-02-05T18:25:02.907Z,1.10
2019-02-05T18:27:34.197Z,1.10
2019-02-05T18:30:08.185Z,1.00
2019-02-05T18:32:40.629Z,1.00
2019-02-05T18:35:11.761Z,0.90
2019-02-05T18:37:42.473Z,0.90
2019-02-05T18:40:14.235Z,0.80
2019-02-05T18:42:45.041Z,0.80
2019-02-05T18:45:16.582Z,0.70
2019-02-05T18:47:46.963Z,0.70
2019-02-05T18:50:19.879Z,0.70
2019-02-05T18:52:50.675Z,0.60
2019-02-05T18:55:22.304Z,0.60
2019-02-05T18:57:53.048Z,0.60
2019-02-05T19:00:26.494Z,0.50
2019-02-05T19:02:57.733Z,0.50
2019-02-05T19:05:28.541Z,0.50
2019-02-05T19:07:58.963Z,0.50
2019-02-05T19:10:32.071Z,0.50
2019-02-05T19:13:02.765Z,0.40
2019-02-05T19:15:34.925Z,0.40
2019-02-05T19:18:06.859Z,0.40
2019-02-05T19:20:37.519Z,0.40
2019-02-05T19:23:09.126Z,0.40
2019-02-05T19:26:02.175Z,0.40
2019-02-05T19:28:37.052Z,0.40
2019-02-05T19:31:26.595Z,0.40
2019-02-05T19:33:56.935Z,0.40
2019-02-05T19:36:31.257Z,0.40
2019-02-05T19:39:01.600Z,0.40
2019-02-05T19:41:34.386Z,0.40
2019-02-05T19:44:05.053Z,0.40
2019-02-05T19:46:54.224Z,0.50
2019-02-05T19:49:42.318Z,0.50
2019-02-05T19:52:13.009Z,0.40
2019-02-05T19:54:43.458Z,0.50
2019-02-05T19:57:13.849Z,0.50
2019-02-05T19:59:44.742Z,0.50
2019-02-05T20:02:15.565Z,0.50
2019-02-05T20:04:46.005Z,0.50
2019-02-05T20:07:16.335Z,0.50
2019-02-05T20:09:46.743Z,0.50
2019-02-05T20:12:17.264Z,0.50
2019-02-05T20:14:48.051Z,0.50
2019-02-05T20:17:18.730Z,0.50
2019-02-05T20:19:49.211Z,0.50
2019-02-05T20:22:19.638Z,0.50
2019-02-05T20:24:50.106Z,0.50
2019-02-05T20:27:20.625Z,0.60
2019-02-05T20:29:51.657Z,0.60
2019-02-05T20:32:22.280Z,0.50
2019-02-05T20:34:53.003Z,0.60
2019-02-05T20:37:23.434Z,0.50
2019-02-05T20:39:53.976Z,0.60
2019-02-05T20:42:24.636Z,0.60
2019-02-05T20:44:55.082Z,0.60
2019-02-05T20:47:25.758Z,0.60
2019-02-05T20:49:56.262Z,0.70
2019-02-05T20:52:27.031Z,0.70
2019-02-05T20:54:57.451Z,0.70
2019-02-05T20:57:27.819Z,0.70
2019-02-05T20:59:58.447Z,0.70
2019-02-05T21:02:28.959Z,0.70
2019-02-05T21:04:59.366Z,0.70
2019-02-05T21:07:29.718Z,0.70
2019-02-05T21:10:00.067Z,0.70
2019-02-05T21:12:30.479Z,0.70
2019-02-05T21:15:01.014Z,0.70
2019-02-05T21:17:31.467Z,0.70
2019-02-05T21:20:01.785Z,0.70
2019-02-05T21:22:32.200Z,0.70
2019-02-05T21:25:02.543Z,0.70
2019-02-05T21:27:33.127Z,0.70
2019-02-05T21:30:05.044Z,0.70
2019-02-05T21:32:35.517Z,0.70
2019-02-05T21:35:06.889Z,0.70
2019-02-05T21:37:37.286Z,0.70
2019-02-05T21:40:10.894Z,0.70
2019-02-05T21:42:41.327Z,0.70
2019-02-05T21:45:14.049Z,0.70
2019-02-05T21:47:44.463Z,0.70
2019-02-05T21:50:17.491Z,0.70
2019-02-05T21:52:48.660Z,0.70
2019-02-05T21:55:19.942Z,0.70
2019-02-05T21:57:50.278Z,0.70
2019-02-05T22:00:24.046Z,0.70
2019-02-05T22:02:54.614Z,0.70
2019-02-05T22:05:26.092Z,0.70
2019-02-05T22:07:56.955Z,0.70
2019-02-05T22:10:27.596Z,0.80
2019-02-05T22:12:58.339Z,0.80
2019-02-05T22:15:29.658Z,0.70
2019-02-05T22:18:00.346Z,0.80
2019-02-05T22:20:32.004Z,0.80
2019-02-05T22:23:02.563Z,0.80
2019-02-05T22:25:33.168Z,0.80
2019-02-05T22:28:03.895Z,0.80
2019-02-05T22:30:35.569Z,0.90
2019-02-05T22:33:08.108Z,0.80
2019-02-05T22:35:38.474Z,0.80
2019-02-05T22:38:09.038Z,0.80
2019-02-05T22:40:39.699Z,0.80
2019-02-05T22:43:10.582Z,0.80
2019-02-05T22:45:41.298Z,0.80
2019-02-05T22:48:11.919Z,0.80
2019-02-05T22:50:42.671Z,0.80
2019-02-05T22:53:13.127Z,0.80
2019-02-05T22:55:43.535Z,0.80
2019-02-05T22:58:13.971Z,0.80
2019-02-05T23:01:23.290Z,0.90
2019-02-05T23:03:59.228Z,0.80
2019-02-05T23:06:57.831Z,0.80
2019-02-05T23:09:56.451Z,0.80
2019-02-05T23:12:48.280Z,0.80
2019-02-05T23:15:29.187Z,0.80
2019-02-05T23:18:00.826Z,0.80
2019-02-05T23:20:31.989Z,0.80
2019-02-05T23:23:02.404Z,0.80
2019-02-05T23:25:32.967Z,0.80
2019-02-05T23:28:03.508Z,0.80
2019-02-05T23:30:33.855Z,0.80
2019-02-05T23:33:04.681Z,0.90
2019-02-05T23:35:34.949Z,0.80
2019-02-05T23:38:05.671Z,0.90
2019-02-05T23:40:36.114Z,0.80
2019-02-05T23:43:10.082Z,0.90
2019-02-05T23:45:40.488Z,0.80
2019-02-05T23:48:11.030Z,0.90
2019-02-05T23:50:43.194Z,0.90
2019-02-05T23:53:13.628Z,0.90
2019-02-05T23:55:44.168Z,0.90
2019-02-05T23:58:14.559Z,0.90
